createdAt,value
2016-11-25T00:00:31.187Z,18.05
2016-11-25T00:01:03.524Z,18.02
2016-11-25T00:01:35.850Z,17.99
2016-11-25T00:02:08.167Z,18.03
2016-11-25T00:02:40.479Z,18.05
2016-11-25T00:03:12.829Z,17.96
2016-11-25T00:03:45.164Z,18.02
2016-11-25T00:04:17.474Z,18.05
2016-11-25T00:04:49.803Z,18.03
2016-11-25T00:05:22.122Z,18.08
2016-11-25T00:05:54.464Z,18.05
2016-11-25T00:06:26.767Z,18.08
2016-11-25T00:06:59.112Z,18.1
2016-11-25T00:07:31.426Z,18.08
2016-11-25T00:08:03.761Z,18.08
2016-11-25T00:08:36.097Z,18.16
2016-11-25T00:09:08.416Z,18.13
2016-11-25T00:09:40.742Z,18.03
2016-11-25T00:10:13.046Z,18.13
2016-11-25T00:10:45.419Z,18.06
2016-11-25T00:11:17.753Z,18.06
2016-11-25T00:11:50.063Z,18.03
2016-11-25T00:12:22.395Z,18.03
2016-11-25T00:12:54.718Z,18.05
2016-11-25T00:13:27.075Z,18.06
2016-11-25T00:13:59.385Z,18.03
2016-11-25T00:14:31.701Z,18.08
2016-11-25T00:15:04.020Z,18.13
2016-11-25T00:15:36.360Z,18.21
2016-11-25T00:16:08.721Z,18.2
2016-11-25T00:16:41.047Z,18.17
2016-11-25T00:17:13.376Z,18.23
2016-11-25T00:17:45.698Z,18.23
2016-11-25T00:18:18.075Z,18.24
2016-11-25T00:18:50.393Z,18.24
2016-11-25T00:19:22.719Z,18.23
2016-11-25T00:19:55.035Z,18.17
2016-11-25T00:20:27.360Z,18.19
2016-11-25T00:20:59.679Z,18.17
2016-11-25T00:21:31.996Z,18.16
2016-11-25T00:22:04.349Z,18.2
2016-11-25T00:22:36.682Z,18.21
2016-11-25T00:23:09.003Z,18.32
2016-11-25T00:23:41.338Z,18.19
2016-11-25T00:24:13.674Z,18.17
2016-11-25T00:24:45.987Z,18.19
2016-11-25T00:25:18.328Z,18.16
2016-11-25T00:25:50.652Z,18.24
2016-11-25T00:26:22.989Z,18.2
2016-11-25T00:26:55.291Z,18.19
2016-11-25T00:27:27.615Z,18.26
2016-11-25T00:27:59.928Z,18.26
2016-11-25T00:28:32.246Z,18.29
2016-11-25T00:29:04.558Z,18.27
2016-11-25T00:29:36.931Z,18.29
2016-11-25T00:30:09.251Z,18.27
2016-11-25T00:30:41.564Z,18.17
2016-11-25T00:31:13.898Z,18.21
2016-11-25T00:31:46.266Z,18.21
2016-11-25T00:32:18.587Z,18.29
2016-11-25T00:32:50.904Z,18.21
2016-11-25T00:33:23.225Z,18.26
2016-11-25T00:33:55.555Z,18.26
2016-11-25T00:34:27.878Z,18.34
2016-11-25T00:35:00.177Z,18.24
2016-11-25T00:35:32.504Z,18.31
2016-11-25T00:36:04.857Z,18.27
2016-11-25T00:36:37.193Z,18.27
2016-11-25T00:37:09.510Z,18.29
2016-11-25T00:37:41.847Z,18.23
2016-11-25T00:38:14.168Z,18.32
2016-11-25T00:38:46.518Z,18.36
2016-11-25T00:39:18.843Z,18.29
2016-11-25T00:39:51.172Z,18.27
2016-11-25T00:40:23.495Z,18.29
2016-11-25T00:40:55.812Z,18.26
2016-11-25T00:41:28.129Z,18.29
2016-11-25T00:42:00.453Z,18.32
2016-11-25T00:42:32.789Z,18.27
2016-11-25T00:43:05.130Z,18.31
2016-11-25T00:43:37.468Z,18.34
2016-11-25T00:44:09.792Z,18.26
2016-11-25T00:44:42.151Z,18.24
2016-11-25T00:45:14.458Z,18.21
2016-11-25T00:45:46.778Z,18.31
2016-11-25T00:46:19.131Z,18.34
2016-11-25T00:46:51.447Z,18.32
2016-11-25T00:47:23.764Z,18.27
2016-11-25T00:47:56.105Z,18.31
2016-11-25T00:48:28.421Z,18.26
2016-11-25T00:49:00.773Z,18.29
2016-11-25T00:49:33.087Z,18.27
2016-11-25T00:50:05.399Z,18.26
2016-11-25T00:50:37.717Z,18.32
2016-11-25T00:51:10.026Z,18.29
2016-11-25T00:51:42.347Z,18.31
2016-11-25T00:52:14.684Z,18.19
2016-11-25T00:52:47.001Z,18.27
2016-11-25T00:53:19.306Z,18.2
2016-11-25T00:53:51.617Z,18.21
2016-11-25T00:54:23.924Z,18.31
2016-11-25T00:54:56.260Z,18.21
2016-11-25T00:55:28.581Z,18.19
2016-11-25T00:56:00.904Z,18.26
2016-11-25T00:56:33.228Z,18.19
2016-11-25T00:57:05.565Z,18.29
2016-11-25T00:57:37.878Z,18.17
2016-11-25T00:58:10.204Z,18.17
2016-11-25T00:58:42.544Z,18.23
2016-11-25T00:59:14.885Z,18.19
2016-11-25T00:59:47.219Z,18.16
2016-11-25T01:00:19.535Z,18.2
2016-11-25T01:00:51.848Z,18.16
2016-11-25T01:01:24.183Z,18.19
2016-11-25T01:01:56.488Z,18.19
2016-11-25T01:02:28.862Z,18.14
2016-11-25T01:03:01.189Z,18.23
2016-11-25T01:03:33.528Z,18.23
2016-11-25T01:04:05.852Z,18.2
2016-11-25T01:04:38.182Z,18.17
2016-11-25T01:05:10.494Z,18.16
2016-11-25T01:05:42.820Z,18.2
2016-11-25T01:06:15.136Z,18.21
2016-11-25T01:06:47.464Z,18.14
2016-11-25T01:07:19.774Z,18.19
2016-11-25T01:07:52.084Z,18.16
2016-11-25T01:08:24.421Z,18.2
2016-11-25T01:08:56.732Z,18.23
2016-11-25T01:09:29.043Z,18.13
2016-11-25T01:10:01.355Z,18.21
2016-11-25T01:10:33.689Z,18.16
2016-11-25T01:11:06.011Z,18.26
2016-11-25T01:11:38.337Z,18.21
2016-11-25T01:12:10.669Z,18.23
2016-11-25T01:12:42.990Z,18.23
2016-11-25T01:13:15.312Z,18.23
2016-11-25T01:13:47.626Z,18.21
2016-11-25T01:14:19.993Z,18.23
2016-11-25T01:14:52.321Z,18.17
2016-11-25T01:15:24.701Z,18.1
2016-11-25T01:15:57.028Z,18.13
2016-11-25T01:16:29.358Z,18.16
2016-11-25T01:17:01.707Z,18.21
2016-11-25T01:17:34.024Z,18.14
2016-11-25T01:18:06.351Z,18.06
2016-11-25T01:18:38.675Z,18.1
2016-11-25T01:19:10.994Z,18.08
2016-11-25T01:19:43.326Z,18.06
2016-11-25T01:20:15.662Z,18.08
2016-11-25T01:20:47.983Z,18.17
2016-11-25T01:21:20.322Z,18.06
2016-11-25T01:21:52.633Z,18.05
2016-11-25T01:22:24.974Z,18.05
2016-11-25T01:22:57.298Z,18.05
2016-11-25T01:23:29.619Z,18.1
2016-11-25T01:24:01.929Z,18.03
2016-11-25T01:24:34.240Z,18.11
2016-11-25T01:25:06.577Z,18.19
2016-11-25T01:25:38.909Z,18.1
2016-11-25T01:26:11.235Z,18.02
2016-11-25T01:26:43.556Z,18.05
2016-11-25T01:27:15.882Z,18.1
2016-11-25T01:27:48.204Z,18.13
2016-11-25T01:28:20.538Z,18.06
2016-11-25T01:28:52.873Z,18.08
2016-11-25T01:29:25.195Z,18.06
2016-11-25T01:29:57.557Z,18.08
2016-11-25T01:30:29.882Z,18.06
2016-11-25T01:31:02.217Z,18.05
2016-11-25T01:31:34.546Z,18.14
2016-11-25T01:32:06.869Z,18.02
2016-11-25T01:32:39.184Z,17.99
2016-11-25T01:33:11.516Z,18.02
2016-11-25T01:33:43.840Z,18.1
2016-11-25T01:34:16.167Z,18.03
2016-11-25T01:34:48.469Z,18.02
2016-11-25T01:35:20.801Z,18.08
2016-11-25T01:35:53.122Z,18.03
2016-11-25T01:36:25.451Z,18.02
2016-11-25T01:36:57.765Z,18.1
2016-11-25T01:37:30.095Z,18.01
2016-11-25T01:38:02.412Z,18.1
2016-11-25T01:38:34.738Z,17.99
2016-11-25T01:39:07.060Z,18.05
2016-11-25T01:39:39.387Z,18.1
2016-11-25T01:40:11.742Z,18.03
2016-11-25T01:40:44.062Z,18.02
2016-11-25T01:41:16.404Z,18.03
2016-11-25T01:41:48.735Z,18.03
2016-11-25T01:42:21.062Z,18.02
2016-11-25T01:42:53.398Z,17.99
2016-11-25T01:43:25.702Z,17.95
2016-11-25T01:43:58.025Z,17.96
2016-11-25T01:44:30.343Z,18.05
2016-11-25T01:45:02.664Z,17.96
2016-11-25T01:45:35.011Z,17.95
2016-11-25T01:46:07.318Z,18.08
2016-11-25T01:46:39.648Z,18.01
2016-11-25T01:47:11.972Z,17.98
2016-11-25T01:47:44.300Z,17.98
2016-11-25T01:48:16.636Z,18.05
2016-11-25T01:48:48.970Z,18.08
2016-11-25T01:49:21.285Z,18.03
2016-11-25T01:49:53.617Z,17.98
2016-11-25T01:50:25.927Z,17.95
2016-11-25T01:50:58.237Z,17.99
2016-11-25T01:51:30.560Z,17.98
2016-11-25T01:52:02.909Z,17.99
2016-11-25T01:52:35.238Z,18.01
2016-11-25T01:53:07.573Z,18.01
2016-11-25T01:53:39.873Z,17.95
2016-11-25T01:54:12.191Z,17.9
2016-11-25T01:54:44.512Z,18.01
2016-11-25T01:55:16.843Z,17.99
2016-11-25T01:55:49.186Z,17.95
2016-11-25T01:56:21.494Z,17.96
2016-11-25T01:56:53.812Z,17.98
2016-11-25T01:57:26.134Z,17.92
2016-11-25T01:57:58.461Z,18.01
2016-11-25T01:58:30.789Z,17.96
2016-11-25T01:59:03.150Z,17.99
2016-11-25T01:59:35.499Z,17.96
2016-11-25T02:00:07.822Z,17.95
2016-11-25T02:00:40.162Z,17.98
2016-11-25T02:01:12.483Z,17.95
2016-11-25T02:01:44.810Z,17.98
2016-11-25T02:02:17.140Z,17.96
2016-11-25T02:02:49.461Z,17.95
2016-11-25T02:03:21.800Z,17.98
2016-11-25T02:03:54.125Z,17.95
2016-11-25T02:04:26.430Z,17.95
2016-11-25T02:04:58.748Z,17.95
2016-11-25T02:05:31.082Z,17.95
2016-11-25T02:06:03.408Z,17.88
2016-11-25T02:06:35.733Z,17.92
2016-11-25T02:07:08.039Z,17.95
2016-11-25T02:07:40.382Z,17.95
2016-11-25T02:08:12.720Z,17.94
2016-11-25T02:08:45.037Z,17.9
2016-11-25T02:09:17.386Z,17.92
2016-11-25T02:09:49.710Z,17.98
2016-11-25T02:10:22.080Z,17.95
2016-11-25T02:10:54.433Z,17.96
2016-11-25T02:11:26.782Z,17.96
2016-11-25T02:11:59.092Z,17.96
2016-11-25T02:12:31.424Z,17.98
2016-11-25T02:13:03.794Z,17.9
2016-11-25T02:13:36.134Z,17.88
2016-11-25T02:14:08.447Z,17.94
2016-11-25T02:14:40.771Z,17.9
2016-11-25T02:15:13.095Z,17.9
2016-11-25T02:15:45.423Z,17.92
2016-11-25T02:16:17.785Z,17.88
2016-11-25T02:16:50.116Z,17.95
2016-11-25T02:17:22.474Z,17.87
2016-11-25T02:17:54.779Z,17.94
2016-11-25T02:18:27.112Z,17.9
2016-11-25T02:18:59.427Z,17.9
2016-11-25T02:19:31.786Z,17.88
2016-11-25T02:20:04.106Z,17.99
2016-11-25T02:20:36.432Z,17.96
2016-11-25T02:21:08.761Z,17.88
2016-11-25T02:21:41.083Z,17.92
2016-11-25T02:22:13.407Z,17.96
2016-11-25T02:22:45.735Z,17.9
2016-11-25T02:23:18.073Z,17.9
2016-11-25T02:23:50.390Z,17.88
2016-11-25T02:24:22.723Z,17.87
2016-11-25T02:24:55.047Z,17.92
2016-11-25T02:25:27.372Z,17.88
2016-11-25T02:25:59.719Z,17.9
2016-11-25T02:26:32.028Z,17.92
2016-11-25T02:27:04.354Z,17.9
2016-11-25T02:27:36.682Z,17.88
2016-11-25T02:28:08.996Z,17.95
2016-11-25T02:28:41.316Z,17.9
2016-11-25T02:29:13.646Z,17.88
2016-11-25T02:29:45.957Z,17.95
2016-11-25T02:30:18.278Z,17.92
2016-11-25T02:30:50.607Z,17.92
2016-11-25T02:31:22.970Z,17.87
2016-11-25T02:31:56.996Z,17.88
2016-11-25T02:32:29.336Z,17.88
2016-11-25T02:33:01.662Z,17.92
2016-11-25T02:33:34.007Z,17.88
2016-11-25T02:34:06.328Z,17.88
2016-11-25T02:34:38.657Z,17.84
2016-11-25T02:35:11.006Z,17.88
2016-11-25T02:35:43.324Z,17.88
2016-11-25T02:36:15.631Z,17.87
2016-11-25T02:36:47.961Z,17.92
2016-11-25T02:37:20.290Z,17.9
2016-11-25T02:37:52.605Z,17.87
2016-11-25T02:38:24.914Z,17.87
2016-11-25T02:38:57.253Z,17.9
2016-11-25T02:39:29.572Z,17.94
2016-11-25T02:40:01.922Z,17.88
2016-11-25T02:40:34.254Z,17.88
2016-11-25T02:41:06.579Z,17.9
2016-11-25T02:41:38.915Z,17.94
2016-11-25T02:42:11.253Z,17.86
2016-11-25T02:42:43.571Z,17.9
2016-11-25T02:43:15.874Z,17.88
2016-11-25T02:43:48.211Z,17.92
2016-11-25T02:44:20.557Z,17.92
2016-11-25T02:44:52.882Z,17.92
2016-11-25T02:45:25.210Z,17.92
2016-11-25T02:45:57.570Z,17.94
2016-11-25T02:46:29.889Z,17.94
2016-11-25T02:47:02.212Z,17.88
2016-11-25T02:47:34.545Z,17.96
2016-11-25T02:48:06.881Z,17.94
2016-11-25T02:48:39.241Z,17.9
2016-11-25T02:49:11.558Z,17.94
2016-11-25T02:49:43.911Z,17.9
2016-11-25T02:50:16.233Z,17.9
2016-11-25T02:50:48.539Z,17.88
2016-11-25T02:51:20.866Z,17.99
2016-11-25T02:51:53.211Z,17.94
2016-11-25T02:52:25.541Z,17.92
2016-11-25T02:52:57.892Z,17.95
2016-11-25T02:53:30.212Z,17.94
2016-11-25T02:54:02.573Z,17.96
2016-11-25T02:54:34.898Z,17.87
2016-11-25T02:55:07.212Z,17.96
2016-11-25T02:55:39.531Z,17.98
2016-11-25T02:56:11.841Z,17.95
2016-11-25T02:56:44.190Z,17.95
2016-11-25T02:57:16.524Z,17.99
2016-11-25T02:57:48.850Z,18.01
2016-11-25T02:58:21.177Z,17.95
2016-11-25T02:58:53.503Z,17.98
2016-11-25T02:59:25.822Z,17.92
2016-11-25T02:59:58.145Z,18.01
2016-11-25T03:00:30.460Z,17.9
2016-11-25T03:01:02.772Z,17.94
2016-11-25T03:01:35.094Z,17.98
2016-11-25T03:02:07.425Z,18.01
2016-11-25T03:02:39.740Z,17.99
2016-11-25T03:03:12.077Z,18.02
2016-11-25T03:03:44.402Z,17.98
2016-11-25T03:04:16.717Z,18.01
2016-11-25T03:04:49.079Z,17.98
2016-11-25T03:05:21.407Z,18.02
2016-11-25T03:05:53.734Z,18.05
2016-11-25T03:06:26.053Z,17.95
2016-11-25T03:06:58.380Z,18.03
2016-11-25T03:07:30.712Z,18.02
2016-11-25T03:08:03.058Z,17.98
2016-11-25T03:08:35.378Z,18.03
2016-11-25T03:09:07.709Z,18.02
2016-11-25T03:09:40.037Z,18.01
2016-11-25T03:10:12.383Z,17.99
2016-11-25T03:10:44.724Z,18.02
2016-11-25T03:11:17.042Z,18.1
2016-11-25T03:11:49.381Z,18.01
2016-11-25T03:12:21.695Z,18.11
2016-11-25T03:12:54.026Z,18.03
2016-11-25T03:13:26.337Z,18.13
2016-11-25T03:13:58.666Z,18.1
2016-11-25T03:14:30.967Z,18.05
2016-11-25T03:15:03.288Z,18.14
2016-11-25T03:15:35.601Z,18.08
2016-11-25T03:16:07.935Z,18.06
2016-11-25T03:16:40.293Z,18.03
2016-11-25T03:17:12.609Z,18.01
2016-11-25T03:17:44.912Z,18.1
2016-11-25T03:18:17.235Z,18.02
2016-11-25T03:18:49.546Z,18.01
2016-11-25T03:19:21.869Z,18.03
2016-11-25T03:19:54.199Z,18.19
2016-11-25T03:20:26.512Z,18.14
2016-11-25T03:20:58.829Z,18.11
2016-11-25T03:21:31.157Z,18.06
2016-11-25T03:22:03.485Z,18.05
2016-11-25T03:22:35.808Z,18.13
2016-11-25T03:23:08.154Z,18.14
2016-11-25T03:23:40.461Z,18.14
2016-11-25T03:24:12.781Z,18.14
2016-11-25T03:24:45.112Z,18.11
2016-11-25T03:25:17.441Z,18.2
2016-11-25T03:25:50.640Z,18.16
2016-11-25T03:26:22.992Z,18.17
2016-11-25T03:26:55.313Z,18.1
2016-11-25T03:27:27.682Z,18.17
2016-11-25T03:27:59.991Z,18.2
2016-11-25T03:28:32.314Z,18.08
2016-11-25T03:29:04.635Z,18.19
2016-11-25T03:29:36.996Z,18.08
2016-11-25T03:30:09.351Z,18.13
2016-11-25T03:30:41.675Z,18.14
2016-11-25T03:31:14.022Z,18.19
2016-11-25T03:31:46.345Z,18.17
2016-11-25T03:32:18.714Z,18.13
2016-11-25T03:32:51.069Z,18.14
2016-11-25T03:33:23.407Z,18.19
2016-11-25T03:33:55.727Z,18.1
2016-11-25T03:34:28.042Z,18.1
2016-11-25T03:35:00.365Z,18.17
2016-11-25T03:35:32.694Z,18.21
2016-11-25T03:36:05.015Z,18.16
2016-11-25T03:36:37.336Z,18.2
2016-11-25T03:37:09.693Z,18.2
2016-11-25T03:37:42.047Z,18.14
2016-11-25T03:38:14.355Z,18.17
2016-11-25T03:38:46.686Z,18.17
2016-11-25T03:39:19.014Z,18.17
2016-11-25T03:39:51.353Z,18.2
2016-11-25T03:40:23.675Z,18.14
2016-11-25T03:40:56.007Z,18.19
2016-11-25T03:41:28.333Z,18.21
2016-11-25T03:42:00.668Z,18.19
2016-11-25T03:42:33.006Z,18.13
2016-11-25T03:43:05.326Z,18.2
2016-11-25T03:43:37.644Z,18.21
2016-11-25T03:44:09.979Z,18.2
2016-11-25T03:44:42.295Z,18.16
2016-11-25T03:45:14.617Z,18.2
2016-11-25T03:45:46.926Z,18.14
2016-11-25T03:46:19.266Z,18.11
2016-11-25T03:46:51.584Z,18.17
2016-11-25T03:47:23.908Z,18.17
2016-11-25T03:47:56.256Z,18.19
2016-11-25T03:48:28.602Z,18.21
2016-11-25T03:49:00.921Z,18.19
2016-11-25T03:49:33.249Z,18.17
2016-11-25T03:50:05.621Z,18.21
2016-11-25T03:50:37.957Z,18.21
2016-11-25T03:51:10.274Z,18.17
2016-11-25T03:51:42.609Z,18.2
2016-11-25T03:52:14.931Z,18.2
2016-11-25T03:52:47.257Z,18.21
2016-11-25T03:53:19.618Z,18.19
2016-11-25T03:53:51.936Z,18.19
2016-11-25T03:54:24.256Z,18.19
2016-11-25T03:54:56.569Z,18.2
2016-11-25T03:55:28.878Z,18.2
2016-11-25T03:56:01.210Z,18.19
2016-11-25T03:56:33.528Z,18.17
2016-11-25T03:57:05.894Z,18.19
2016-11-25T03:57:38.252Z,18.2
2016-11-25T03:58:10.589Z,18.21
2016-11-25T03:58:42.912Z,18.17
2016-11-25T03:59:15.229Z,18.2
2016-11-25T03:59:47.547Z,18.19
2016-11-25T04:00:19.905Z,18.13
2016-11-25T04:00:52.229Z,18.2
2016-11-25T04:01:24.559Z,18.2
2016-11-25T04:01:56.874Z,18.19
2016-11-25T04:02:29.186Z,18.23
2016-11-25T04:03:01.498Z,18.19
2016-11-25T04:03:33.825Z,18.24
2016-11-25T04:04:06.150Z,18.2
2016-11-25T04:04:38.464Z,18.24
2016-11-25T04:05:10.779Z,18.16
2016-11-25T04:05:43.119Z,18.21
2016-11-25T04:06:15.450Z,18.2
2016-11-25T04:06:47.773Z,18.19
2016-11-25T04:07:20.090Z,18.11
2016-11-25T04:07:52.430Z,18.16
2016-11-25T04:08:24.755Z,18.19
2016-11-25T04:08:57.069Z,18.21
2016-11-25T04:09:29.396Z,18.16
2016-11-25T04:10:01.731Z,18.16
2016-11-25T04:10:34.034Z,18.2
2016-11-25T04:11:06.371Z,18.21
2016-11-25T04:11:38.733Z,18.16
2016-11-25T04:12:11.075Z,18.2
2016-11-25T04:12:43.444Z,18.17
2016-11-25T04:13:15.759Z,18.19
2016-11-25T04:13:48.101Z,18.17
2016-11-25T04:14:20.420Z,18.21
2016-11-25T04:14:52.750Z,18.21
2016-11-25T04:15:25.073Z,18.13
2016-11-25T04:15:57.394Z,18.16
2016-11-25T04:16:29.730Z,18.24
2016-11-25T04:17:02.105Z,18.16
2016-11-25T04:17:34.420Z,18.2
2016-11-25T04:18:06.737Z,18.2
2016-11-25T04:18:39.057Z,18.17
2016-11-25T04:19:11.362Z,18.19
2016-11-25T04:19:43.692Z,18.23
2016-11-25T04:20:16.009Z,18.16
2016-11-25T04:20:48.331Z,18.21
2016-11-25T04:21:20.648Z,18.21
2016-11-25T04:21:52.985Z,18.17
2016-11-25T04:22:25.306Z,18.17
2016-11-25T04:22:57.641Z,18.21
2016-11-25T04:23:29.960Z,18.23
2016-11-25T04:24:02.305Z,18.16
2016-11-25T04:24:34.638Z,18.08
2016-11-25T04:25:06.982Z,18.14
2016-11-25T04:25:39.293Z,18.1
2016-11-25T04:26:11.620Z,18.06
2016-11-25T04:26:43.936Z,18.17
2016-11-25T04:27:16.269Z,18.06
2016-11-25T04:27:48.583Z,18.23
2016-11-25T04:28:20.883Z,18.11
2016-11-25T04:28:53.207Z,18.23
2016-11-25T04:29:25.539Z,18.17
2016-11-25T04:29:57.857Z,18.11
2016-11-25T04:30:30.172Z,18.17
2016-11-25T04:31:02.490Z,18.06
2016-11-25T04:31:34.809Z,18.21
2016-11-25T04:32:07.135Z,18.14
2016-11-25T04:32:39.445Z,18.16
2016-11-25T04:33:11.761Z,18.2
2016-11-25T04:33:44.091Z,18.06
2016-11-25T04:34:16.429Z,18.08
2016-11-25T04:34:48.755Z,18.05
2016-11-25T04:35:21.053Z,18.19
2016-11-25T04:35:53.378Z,18.14
2016-11-25T04:36:25.711Z,18.14
2016-11-25T04:36:58.024Z,18.16
2016-11-25T04:37:30.347Z,17.99
2016-11-25T04:38:02.687Z,18.11
2016-11-25T04:38:35.014Z,18.14
2016-11-25T04:39:07.331Z,18.08
2016-11-25T04:39:39.644Z,18.14
2016-11-25T04:40:11.979Z,18.11
2016-11-25T04:40:44.303Z,18.13
2016-11-25T04:41:16.629Z,18.06
2016-11-25T04:41:48.970Z,18.16
2016-11-25T04:42:21.295Z,18.02
2016-11-25T04:42:53.609Z,18.21
2016-11-25T04:43:25.969Z,18.06
2016-11-25T04:43:58.284Z,18.06
2016-11-25T04:44:30.607Z,18.08
2016-11-25T04:45:02.919Z,18.08
2016-11-25T04:45:35.241Z,18.1
2016-11-25T04:46:07.592Z,18.06
2016-11-25T04:46:39.935Z,18.19
2016-11-25T04:47:12.260Z,18.14
2016-11-25T04:47:44.580Z,18.14
2016-11-25T04:48:16.904Z,18.02
2016-11-25T04:48:49.244Z,18.02
2016-11-25T04:49:21.552Z,18.06
2016-11-25T04:49:53.884Z,18.06
2016-11-25T04:50:26.235Z,18.05
2016-11-25T04:50:58.538Z,18.05
2016-11-25T04:51:30.862Z,18.05
2016-11-25T04:52:03.187Z,18.06
2016-11-25T04:52:35.502Z,18.1
2016-11-25T04:53:07.825Z,18.06
2016-11-25T04:53:40.148Z,18.05
2016-11-25T04:54:12.478Z,18.05
2016-11-25T04:54:44.792Z,18.02
2016-11-25T04:55:17.123Z,18.16
2016-11-25T04:55:49.450Z,18.02
2016-11-25T04:56:21.769Z,18.05
2016-11-25T04:56:54.113Z,18.02
2016-11-25T04:57:26.432Z,18.01
2016-11-25T04:57:58.754Z,18.03
2016-11-25T04:58:31.099Z,18.05
2016-11-25T04:59:03.432Z,18.05
2016-11-25T04:59:35.749Z,18.03
2016-11-25T05:00:08.063Z,18.01
2016-11-25T05:00:40.377Z,18.02
2016-11-25T05:01:12.690Z,18.02
2016-11-25T05:01:45.011Z,18.05
2016-11-25T05:02:17.367Z,18.08
2016-11-25T05:02:49.734Z,18.01
2016-11-25T05:03:23.011Z,18.05
2016-11-25T05:03:55.330Z,18.05
2016-11-25T05:04:27.672Z,18.06
2016-11-25T05:04:59.996Z,18.06
2016-11-25T05:05:32.317Z,18.08
2016-11-25T05:06:04.647Z,18.05
2016-11-25T05:06:36.969Z,18.06
2016-11-25T05:07:09.332Z,18.05
2016-11-25T05:07:41.658Z,18.06
2016-11-25T05:08:13.993Z,18.06
2016-11-25T05:08:46.320Z,18.06
2016-11-25T05:09:18.688Z,18.13
2016-11-25T05:09:51.014Z,18.13
2016-11-25T05:10:23.355Z,18.03
2016-11-25T05:10:55.684Z,18.17
2016-11-25T05:11:28.009Z,18.08
2016-11-25T05:12:00.342Z,18.06
2016-11-25T05:12:32.671Z,18.11
2016-11-25T05:13:05.022Z,18.13
2016-11-25T05:13:37.367Z,18.08
2016-11-25T05:14:09.741Z,17.99
2016-11-25T05:14:42.066Z,18.02
2016-11-25T05:15:14.377Z,17.99
2016-11-25T05:15:46.691Z,17.99
2016-11-25T05:16:19.028Z,18.03
2016-11-25T05:16:51.352Z,18.08
2016-11-25T05:17:23.667Z,18.06
2016-11-25T05:17:55.995Z,18.13
2016-11-25T05:18:28.319Z,18.05
2016-11-25T05:19:00.633Z,18.06
2016-11-25T05:19:32.970Z,18.17
2016-11-25T05:20:05.284Z,18.17
2016-11-25T05:20:37.613Z,18.08
2016-11-25T05:21:09.948Z,18.11
2016-11-25T05:21:42.272Z,18.05
2016-11-25T05:22:14.607Z,18.03
2016-11-25T05:22:46.928Z,18.1
2016-11-25T05:23:19.259Z,18.13
2016-11-25T05:23:51.577Z,18.06
2016-11-25T05:24:23.904Z,18.1
2016-11-25T05:24:56.227Z,18.08
2016-11-25T05:25:28.566Z,18.13
2016-11-25T05:26:00.886Z,18.03
2016-11-25T05:26:33.223Z,18.06
2016-11-25T05:27:05.550Z,18.06
2016-11-25T05:27:37.868Z,18.03
2016-11-25T05:28:10.177Z,18.06
2016-11-25T05:28:42.499Z,18.02
2016-11-25T05:29:14.827Z,18.08
2016-11-25T05:29:47.150Z,18.06
2016-11-25T05:30:19.464Z,18.1
2016-11-25T05:30:51.790Z,18.03
2016-11-25T05:31:24.165Z,18.08
2016-11-25T05:31:56.477Z,18.03
2016-11-25T05:32:28.793Z,18.13
2016-11-25T05:33:01.121Z,18.1
2016-11-25T05:33:33.445Z,18.17
2016-11-25T05:34:05.784Z,18.02
2016-11-25T05:34:38.137Z,18.05
2016-11-25T05:35:10.468Z,18.02
2016-11-25T05:35:42.793Z,18.02
2016-11-25T05:36:15.141Z,18.03
2016-11-25T05:36:47.462Z,18.03
2016-11-25T05:37:19.799Z,18.17
2016-11-25T05:37:52.126Z,18.08
2016-11-25T05:38:24.461Z,18.16
2016-11-25T05:38:56.791Z,18.06
2016-11-25T05:39:29.115Z,18.08
2016-11-25T05:40:01.449Z,17.98
2016-11-25T05:40:33.773Z,18.06
2016-11-25T05:41:06.103Z,18.08
2016-11-25T05:41:38.426Z,17.99
2016-11-25T05:42:10.744Z,18.05
2016-11-25T05:42:43.072Z,18.03
2016-11-25T05:43:15.396Z,18.05
2016-11-25T05:43:47.712Z,18.11
2016-11-25T05:44:20.026Z,18.08
2016-11-25T05:44:52.335Z,18.02
2016-11-25T05:45:24.636Z,18.1
2016-11-25T05:45:56.969Z,18.08
2016-11-25T05:46:29.300Z,18.02
2016-11-25T05:47:01.603Z,18.01
2016-11-25T05:47:33.945Z,18.06
2016-11-25T05:48:06.273Z,18.01
2016-11-25T05:48:38.594Z,17.99
2016-11-25T05:49:12.002Z,18.1
2016-11-25T05:49:44.332Z,18.02
2016-11-25T05:50:16.693Z,17.98
2016-11-25T05:50:49.012Z,18.02
2016-11-25T05:51:21.327Z,18.05
2016-11-25T05:51:53.648Z,18.03
2016-11-25T05:52:25.973Z,17.99
2016-11-25T05:52:58.296Z,18.01
2016-11-25T05:53:30.668Z,18.03
2016-11-25T05:54:02.970Z,18.05
2016-11-25T05:54:35.293Z,18.02
2016-11-25T05:55:07.616Z,18.02
2016-11-25T05:55:39.946Z,18.02
2016-11-25T05:56:12.290Z,17.99
2016-11-25T05:56:44.598Z,18.11
2016-11-25T05:57:16.926Z,18.02
2016-11-25T05:57:49.248Z,18.06
2016-11-25T05:58:21.564Z,18.02
2016-11-25T05:58:53.892Z,18.01
2016-11-25T05:59:26.205Z,18.05
2016-11-25T05:59:58.534Z,17.95
2016-11-25T06:00:30.878Z,17.95
2016-11-25T06:01:03.219Z,18.01
2016-11-25T06:01:35.532Z,18.02
2016-11-25T06:02:07.842Z,18.05
2016-11-25T06:02:40.156Z,17.98
2016-11-25T06:03:12.743Z,18.01
2016-11-25T06:03:45.075Z,18.02
2016-11-25T06:04:17.399Z,17.95
2016-11-25T06:04:49.716Z,17.95
2016-11-25T06:05:22.037Z,18.05
2016-11-25T06:05:54.356Z,18.02
2016-11-25T06:06:26.672Z,18.03
2016-11-25T06:06:59.003Z,17.98
2016-11-25T06:07:31.333Z,17.96
2016-11-25T06:08:03.652Z,18.08
2016-11-25T06:08:35.973Z,18.03
2016-11-25T06:09:08.298Z,17.95
2016-11-25T06:09:40.646Z,17.99
2016-11-25T06:10:12.986Z,18.02
2016-11-25T06:10:45.335Z,18.01
2016-11-25T06:11:17.688Z,17.96
2016-11-25T06:11:50.044Z,18.02
2016-11-25T06:12:22.376Z,17.98
2016-11-25T06:12:54.751Z,18.01
2016-11-25T06:13:30.516Z,17.98
2016-11-25T06:14:02.843Z,17.98
2016-11-25T06:14:35.166Z,18.01
2016-11-25T06:15:07.500Z,18.01
2016-11-25T06:15:39.867Z,17.98
2016-11-25T06:16:13.689Z,17.98
2016-11-25T06:16:48.532Z,18.01
2016-11-25T06:17:20.843Z,17.98
2016-11-25T06:17:53.159Z,17.98
2016-11-25T06:18:25.481Z,18.02
2016-11-25T06:18:57.803Z,17.98
2016-11-25T06:19:30.123Z,17.99
2016-11-25T06:20:02.458Z,17.99
2016-11-25T06:20:35.715Z,17.92
2016-11-25T06:21:10.186Z,17.99
2016-11-25T06:21:47.723Z,17.98
2016-11-25T06:22:25.679Z,17.95
2016-11-25T06:23:02.078Z,17.99
2016-11-25T06:23:34.402Z,17.96
2016-11-25T06:24:06.709Z,18.02
2016-11-25T06:24:39.046Z,17.94
2016-11-25T06:25:13.688Z,17.96
2016-11-25T06:25:57.926Z,17.95
2016-11-25T06:26:31.684Z,17.9
2016-11-25T06:27:06.054Z,17.98
2016-11-25T06:27:39.452Z,18.05
2016-11-25T06:28:11.770Z,17.99
2016-11-25T06:28:44.129Z,17.94
2016-11-25T06:29:16.471Z,17.98
2016-11-25T06:29:48.801Z,17.88
2016-11-25T06:30:21.111Z,17.94
2016-11-25T06:30:53.422Z,17.98
2016-11-25T06:31:25.747Z,17.99
2016-11-25T06:31:58.075Z,17.99
2016-11-25T06:32:30.419Z,17.99
2016-11-25T06:33:02.772Z,17.92
2016-11-25T06:33:35.122Z,17.98
2016-11-25T06:34:07.456Z,18.02
2016-11-25T06:34:39.773Z,17.9
2016-11-25T06:35:12.109Z,17.95
2016-11-25T06:35:44.460Z,17.9
2016-11-25T06:36:16.789Z,17.96
2016-11-25T06:36:49.141Z,17.99
2016-11-25T06:37:21.451Z,17.88
2016-11-25T06:37:53.772Z,17.99
2016-11-25T06:38:26.098Z,18.02
2016-11-25T06:38:58.412Z,17.94
2016-11-25T06:39:30.755Z,17.94
2016-11-25T06:40:04.117Z,17.95
2016-11-25T06:40:36.436Z,18.01
2016-11-25T06:41:08.756Z,18.01
2016-11-25T06:41:41.063Z,18.01
2016-11-25T06:42:15.116Z,17.92
2016-11-25T06:42:48.213Z,17.96
2016-11-25T06:43:20.543Z,18.02
2016-11-25T06:43:52.876Z,17.98
2016-11-25T06:44:25.190Z,17.88
2016-11-25T06:44:57.488Z,17.96
2016-11-25T06:45:29.805Z,17.96
2016-11-25T06:46:02.140Z,17.98
2016-11-25T06:46:34.473Z,17.99
2016-11-25T06:47:06.781Z,17.98
2016-11-25T06:47:39.093Z,17.98
2016-11-25T06:48:11.447Z,17.96
2016-11-25T06:48:44.180Z,17.95
2016-11-25T06:49:16.500Z,18.01
2016-11-25T06:49:48.815Z,17.98
2016-11-25T06:50:21.335Z,17.98
2016-11-25T06:50:53.908Z,17.98
2016-11-25T06:51:26.267Z,17.92
2016-11-25T06:51:58.693Z,17.99
2016-11-25T06:52:31.027Z,18.02
2016-11-25T06:53:03.374Z,17.96
2016-11-25T06:53:35.804Z,17.92
2016-11-25T06:54:08.131Z,17.99
2016-11-25T06:54:40.430Z,17.96
2016-11-25T06:55:12.760Z,17.95
2016-11-25T06:55:45.068Z,17.96
2016-11-25T06:56:17.409Z,17.98
2016-11-25T06:56:49.713Z,17.92
2016-11-25T06:57:22.082Z,17.95
2016-11-25T06:57:54.428Z,17.99
2016-11-25T06:58:26.758Z,17.92
2016-11-25T06:58:59.294Z,17.96